sensor_id;sensor_type;location;lat;lon;timestamp;temperature;humidity
2623;DHT22;1321;48.690;9.022;2023-02-13T00:01:05;4.70;1.00
2623;DHT22;1321;48.690;9.022;2023-02-13T00:03:33;4.70;1.00
2623;DHT22;1321;48.690;9.022;2023-02-13T00:06:01;4.70;1.00
2623;DHT22;1321;48.690;9.022;2023-02-13T00:08:31;4.70;1.00
2623;DHT22;1321;48.690;9.022;2023-02-13T00:10:59;4.50;1.00
2623;DHT22;1321;48.690;9.022;2023-02-13T00:13:27;4.60;1.00
2623;DHT22;1321;48.690;9.022;2023-02-13T00:15:56;4.60;1.00
2623;DHT22;1321;48.690;9.022;2023-02-13T00:18:25;4.50;1.00
2623;DHT22;1321;48.690;9.022;2023-02-13T00:20:57;4.50;1.00
2623;DHT22;1321;48.690;9.022;2023-02-13T00:23:25;4.60;1.00
2623;DHT22;1321;48.690;9.022;2023-02-13T00:25:55;4.50;1.00
2623;DHT22;1321;48.690;9.022;2023-02-13T00:28:23;4.40;1.00
2623;DHT22;1321;48.690;9.022;2023-02-13T00:30:52;4.40;1.00
2623;DHT22;1321;48.690;9.022;2023-02-13T00:33:20;4.20;1.00
2623;DHT22;1321;48.690;9.022;2023-02-13T00:35:48;4.20;1.00
2623;DHT22;1321;48.690;9.022;2023-02-13T00:38:16;4.20;1.00
2623;DHT22;1321;48.690;9.022;2023-02-13T00:40:44;4.30;1.00
2623;DHT22;1321;48.690;9.022;2023-02-13T00:43:14;4.30;1.00
2623;DHT22;1321;48.690;9.022;2023-02-13T00:45:42;4.30;1.00
2623;DHT22;1321;48.690;9.022;2023-02-13T00:48:10;4.20;1.00
2623;DHT22;1321;48.690;9.022;2023-02-13T00:50:38;4.30;1.00
2623;DHT22;1321;48.690;9.022;2023-02-13T00:53:06;4.30;1.00
2623;DHT22;1321;48.690;9.022;2023-02-13T00:55:34;4.20;1.00
2623;DHT22;1321;48.690;9.022;2023-02-13T00:58:02;4.10;1.00
2623;DHT22;1321;48.690;9.022;2023-02-13T01:00:32;4.10;1.00
2623;DHT22;1321;48.690;9.022;2023-02-13T01:03:00;4.10;27.20
2623;DHT22;1321;48.690;9.022;2023-02-13T01:05:28;4.00;99.90
2623;DHT22;1321;48.690;9.022;2023-02-13T01:07:57;4.10;99.90
2623;DHT22;1321;48.690;9.022;2023-02-13T01:10:26;4.10;67.20
2623;DHT22;1321;48.690;9.022;2023-02-13T01:12:54;4.10;99.90
2623;DHT22;1321;48.690;9.022;2023-02-13T01:15:22;4.20;15.30
2623;DHT22;1321;48.690;9.022;2023-02-13T01:17:53;4.30;1.00
2623;DHT22;1321;48.690;9.022;2023-02-13T01:20:23;4.20;1.00
2623;DHT22;1321;48.690;9.022;2023-02-13T01:22:52;4.10;1.00
2623;DHT22;1321;48.690;9.022;2023-02-13T01:25:20;4.00;65.20
2623;DHT22;1321;48.690;9.022;2023-02-13T01:27:49;4.00;83.60
2623;DHT22;1321;48.690;9.022;2023-02-13T01:30:18;4.10;1.00
2623;DHT22;1321;48.690;9.022;2023-02-13T01:32:46;4.10;1.00
2623;DHT22;1321;48.690;9.022;2023-02-13T01:35:16;4.20;1.00
2623;DHT22;1321;48.690;9.022;2023-02-13T01:37:44;4.10;16.10
2623;DHT22;1321;48.690;9.022;2023-02-13T01:40:13;4.00;1.00
2623;DHT22;1321;48.690;9.022;2023-02-13T01:42:43;4.10;6.50
2623;DHT22;1321;48.690;9.022;2023-02-13T01:45:23;4.10;1.00
2623;DHT22;1321;48.690;9.022;2023-02-13T01:47:53;4.10;1.00
2623;DHT22;1321;48.690;9.022;2023-02-13T01:50:30;4.10;1.00
2623;DHT22;1321;48.690;9.022;2023-02-13T01:53:03;4.00;1.00
2623;DHT22;1321;48.690;9.022;2023-02-13T01:55:34;3.90;1.00
2623;DHT22;1321;48.690;9.022;2023-02-13T01:58:07;3.90;1.00
2623;DHT22;1321;48.690;9.022;2023-02-13T02:00:36;3.80;1.00
2623;DHT22;1321;48.690;9.022;2023-02-13T02:03:10;3.80;9.60
2623;DHT22;1321;48.690;9.022;2023-02-13T02:05:41;3.80;1.00
2623;DHT22;1321;48.690;9.022;2023-02-13T02:08:11;3.90;1.00
2623;DHT22;1321;48.690;9.022;2023-02-13T02:10:40;4.00;1.00
2623;DHT22;1321;48.690;9.022;2023-02-13T02:13:11;3.90;1.00
2623;DHT22;1321;48.690;9.022;2023-02-13T02:15:40;3.70;1.00
2623;DHT22;1321;48.690;9.022;2023-02-13T02:18:13;3.60;1.00
2623;DHT22;1321;48.690;9.022;2023-02-13T02:24:27;3.70;1.00
2623;DHT22;1321;48.690;9.022;2023-02-13T02:27:17;3.70;99.90
2623;DHT22;1321;48.690;9.022;2023-02-13T02:30:22;3.80;1.00
2623;DHT22;1321;48.690;9.022;2023-02-13T02:33:02;3.80;1.00
2623;DHT22;1321;48.690;9.022;2023-02-13T02:35:43;3.90;1.00
2623;DHT22;1321;48.690;9.022;2023-02-13T02:38:25;3.90;1.00
2623;DHT22;1321;48.690;9.022;2023-02-13T02:41:01;3.80;1.00
2623;DHT22;1321;48.690;9.022;2023-02-13T02:43:43;3.70;1.00
2623;DHT22;1321;48.690;9.022;2023-02-13T02:46:17;3.80;1.00
2623;DHT22;1321;48.690;9.022;2023-02-13T02:48:54;3.70;1.00
2623;DHT22;1321;48.690;9.022;2023-02-13T02:51:47;3.70;1.00
2623;DHT22;1321;48.690;9.022;2023-02-13T02:54:23;3.50;1.00
2623;DHT22;1321;48.690;9.022;2023-02-13T02:57:13;3.50;58.30
2623;DHT22;1321;48.690;9.022;2023-02-13T02:59:43;3.60;1.00
2623;DHT22;1321;48.690;9.022;2023-02-13T03:02:31;3.60;39.20
2623;DHT22;1321;48.690;9.022;2023-02-13T03:05:21;3.50;99.90
2623;DHT22;1321;48.690;9.022;2023-02-13T03:08:09;3.60;96.80
2623;DHT22;1321;48.690;9.022;2023-02-13T03:10:37;3.70;1.00
2623;DHT22;1321;48.690;9.022;2023-02-13T03:13:36;3.70;1.00
2623;DHT22;1321;48.690;9.022;2023-02-13T03:16:09;3.80;1.00
2623;DHT22;1321;48.690;9.022;2023-02-13T03:18:57;3.80;1.00
2623;DHT22;1321;48.690;9.022;2023-02-13T03:21:48;3.70;1.00
2623;DHT22;1321;48.690;9.022;2023-02-13T03:24:43;3.60;1.00
2623;DHT22;1321;48.690;9.022;2023-02-13T03:27:20;3.50;1.00
2623;DHT22;1321;48.690;9.022;2023-02-13T03:30:15;3.60;1.00
2623;DHT22;1321;48.690;9.022;2023-02-13T03:32:56;3.60;1.00
2623;DHT22;1321;48.690;9.022;2023-02-13T03:35:34;3.60;1.00
2623;DHT22;1321;48.690;9.022;2023-02-13T03:38:26;3.50;1.00
2623;DHT22;1321;48.690;9.022;2023-02-13T03:40:57;3.50;1.00
2623;DHT22;1321;48.690;9.022;2023-02-13T03:43:53;3.50;1.00
2623;DHT22;1321;48.690;9.022;2023-02-13T03:46:23;3.40;1.00
2623;DHT22;1321;48.690;9.022;2023-02-13T03:48:54;3.40;1.00
2623;DHT22;1321;48.690;9.022;2023-02-13T03:51:43;3.40;1.00
2623;DHT22;1321;48.690;9.022;2023-02-13T03:54:19;3.40;1.00
2623;DHT22;1321;48.690;9.022;2023-02-13T03:56:49;3.30;1.00
2623;DHT22;1321;48.690;9.022;2023-02-13T03:59:36;3.40;1.00
2623;DHT22;1321;48.690;9.022;2023-02-13T04:02:09;3.40;1.00
2623;DHT22;1321;48.690;9.022;2023-02-13T04:04:45;3.50;1.00
2623;DHT22;1321;48.690;9.022;2023-02-13T04:07:17;3.50;1.00
2623;DHT22;1321;48.690;9.022;2023-02-13T04:10:01;3.60;1.00
2623;DHT22;1321;48.690;9.022;2023-02-13T04:12:38;3.50;1.00
2623;DHT22;1321;48.690;9.022;2023-02-13T04:15:11;3.40;1.00
2623;DHT22;1321;48.690;9.022;2023-02-13T04:17:45;3.30;27.50
2623;DHT22;1321;48.690;9.022;2023-02-13T04:20:14;3.30;48.60
2623;DHT22;1321;48.690;9.022;2023-02-13T04:22:43;3.20;99.90
2623;DHT22;1321;48.690;9.022;2023-02-13T04:25:14;3.30;16.20
2623;DHT22;1321;48.690;9.022;2023-02-13T04:27:43;3.30;1.00
2623;DHT22;1321;48.690;9.022;2023-02-13T04:30:12;3.40;1.00
2623;DHT22;1321;48.690;9.022;2023-02-13T04:32:40;3.30;1.00
2623;DHT22;1321;48.690;9.022;2023-02-13T04:35:09;3.10;3.70
2623;DHT22;1321;48.690;9.022;2023-02-13T04:37:39;3.20;1.00
2623;DHT22;1321;48.690;9.022;2023-02-13T04:40:08;3.30;1.00
2623;DHT22;1321;48.690;9.022;2023-02-13T04:42:41;3.10;1.00
2623;DHT22;1321;48.690;9.022;2023-02-13T04:45:09;3.20;1.00
2623;DHT22;1321;48.690;9.022;2023-02-13T04:47:37;3.30;1.00
2623;DHT22;1321;48.690;9.022;2023-02-13T04:50:06;3.20;1.00
2623;DHT22;1321;48.690;9.022;2023-02-13T04:52:34;3.30;1.00
2623;DHT22;1321;48.690;9.022;2023-02-13T04:55:03;3.20;1.00
2623;DHT22;1321;48.690;9.022;2023-02-13T04:57:31;3.20;1.00
2623;DHT22;1321;48.690;9.022;2023-02-13T05:00:01;3.10;1.00
2623;DHT22;1321;48.690;9.022;2023-02-13T05:02:30;3.20;1.00
2623;DHT22;1321;48.690;9.022;2023-02-13T05:04:58;3.10;1.00
2623;DHT22;1321;48.690;9.022;2023-02-13T05:07:26;3.20;1.00
2623;DHT22;1321;48.690;9.022;2023-02-13T05:09:54;3.20;1.00
2623;DHT22;1321;48.690;9.022;2023-02-13T05:12:23;3.10;1.00
2623;DHT22;1321;48.690;9.022;2023-02-13T05:14:51;3.10;1.00
2623;DHT22;1321;48.690;9.022;2023-02-13T05:17:20;3.10;1.00
2623;DHT22;1321;48.690;9.022;2023-02-13T05:19:49;3.00;1.00
2623;DHT22;1321;48.690;9.022;2023-02-13T05:22:17;3.00;1.00
2623;DHT22;1321;48.690;9.022;2023-02-13T05:25:02;3.10;1.00
2623;DHT22;1321;48.690;9.022;2023-02-13T05:27:30;3.10;1.00
2623;DHT22;1321;48.690;9.022;2023-02-13T05:29:58;3.10;1.00
2623;DHT22;1321;48.690;9.022;2023-02-13T05:32:27;3.00;1.00
2623;DHT22;1321;48.690;9.022;2023-02-13T05:34:55;3.00;1.00
2623;DHT22;1321;48.690;9.022;2023-02-13T05:37:23;3.10;1.00
2623;DHT22;1321;48.690;9.022;2023-02-13T05:39:51;3.20;1.00
2623;DHT22;1321;48.690;9.022;2023-02-13T05:42:19;3.10;1.00
2623;DHT22;1321;48.690;9.022;2023-02-13T05:44:47;3.10;1.00
2623;DHT22;1321;48.690;9.022;2023-02-13T05:47:15;3.00;1.00
2623;DHT22;1321;48.690;9.022;2023-02-13T05:49:45;3.00;1.00
2623;DHT22;1321;48.690;9.022;2023-02-13T05:52:13;3.10;1.00
2623;DHT22;1321;48.690;9.022;2023-02-13T05:54:41;3.10;1.00
2623;DHT22;1321;48.690;9.022;2023-02-13T05:57:09;3.10;1.00
2623;DHT22;1321;48.690;9.022;2023-02-13T05:59:37;3.10;1.00
2623;DHT22;1321;48.690;9.022;2023-02-13T06:02:05;3.20;1.00
2623;DHT22;1321;48.690;9.022;2023-02-13T06:04:33;3.20;1.00
2623;DHT22;1321;48.690;9.022;2023-02-13T06:07:03;3.20;1.00
2623;DHT22;1321;48.690;9.022;2023-02-13T06:09:31;3.20;1.00
2623;DHT22;1321;48.690;9.022;2023-02-13T06:11:59;3.20;1.00
2623;DHT22;1321;48.690;9.022;2023-02-13T06:14:27;3.10;1.00
2623;DHT22;1321;48.690;9.022;2023-02-13T06:16:55;3.00;1.00
2623;DHT22;1321;48.690;9.022;2023-02-13T06:19:23;2.90;1.00
2623;DHT22;1321;48.690;9.022;2023-02-13T06:21:51;3.00;1.00
2623;DHT22;1321;48.690;9.022;2023-02-13T06:24:21;3.00;1.00
2623;DHT22;1321;48.690;9.022;2023-02-13T06:26:49;3.00;1.00
2623;DHT22;1321;48.690;9.022;2023-02-13T06:29:18;2.90;1.00
2623;DHT22;1321;48.690;9.022;2023-02-13T06:31:46;2.90;1.00
2623;DHT22;1321;48.690;9.022;2023-02-13T06:34:14;3.00;1.00
2623;DHT22;1321;48.690;9.022;2023-02-13T06:36:42;3.00;1.00
2623;DHT22;1321;48.690;9.022;2023-02-13T06:39:10;3.10;1.00
2623;DHT22;1321;48.690;9.022;2023-02-13T06:41:40;3.20;1.00
2623;DHT22;1321;48.690;9.022;2023-02-13T06:44:08;3.10;1.00
2623;DHT22;1321;48.690;9.022;2023-02-13T06:46:36;3.10;1.00
2623;DHT22;1321;48.690;9.022;2023-02-13T06:49:05;3.10;1.00
2623;DHT22;1321;48.690;9.022;2023-02-13T06:51:33;3.10;1.00
2623;DHT22;1321;48.690;9.022;2023-02-13T06:54:01;3.00;1.00
2623;DHT22;1321;48.690;9.022;2023-02-13T06:56:29;3.10;1.00
2623;DHT22;1321;48.690;9.022;2023-02-13T06:58:59;3.20;1.00
2623;DHT22;1321;48.690;9.022;2023-02-13T07:01:28;3.20;1.00
2623;DHT22;1321;48.690;9.022;2023-02-13T07:03:56;3.20;1.00
2623;DHT22;1321;48.690;9.022;2023-02-13T07:06:25;3.20;1.00
2623;DHT22;1321;48.690;9.022;2023-02-13T07:08:53;3.20;1.00
2623;DHT22;1321;48.690;9.022;2023-02-13T07:11:23;3.20;1.00
2623;DHT22;1321;48.690;9.022;2023-02-13T07:13:52;3.10;1.00
2623;DHT22;1321;48.690;9.022;2023-02-13T07:16:22;3.10;1.00
2623;DHT22;1321;48.690;9.022;2023-02-13T07:18:50;3.10;1.00
2623;DHT22;1321;48.690;9.022;2023-02-13T07:21:18;3.10;1.00
2623;DHT22;1321;48.690;9.022;2023-02-13T07:23:46;3.20;1.00
2623;DHT22;1321;48.690;9.022;2023-02-13T07:26:14;3.30;1.00
2623;DHT22;1321;48.690;9.022;2023-02-13T07:28:42;3.30;1.00
2623;DHT22;1321;48.690;9.022;2023-02-13T07:31:11;3.40;1.00
2623;DHT22;1321;48.690;9.022;2023-02-13T07:33:40;3.50;1.00
2623;DHT22;1321;48.690;9.022;2023-02-13T07:36:09;3.50;1.00
2623;DHT22;1321;48.690;9.022;2023-02-13T07:38:37;3.50;1.00
2623;DHT22;1321;48.690;9.022;2023-02-13T07:41:05;3.50;1.00
2623;DHT22;1321;48.690;9.022;2023-02-13T07:43:33;3.60;99.90
2623;DHT22;1321;48.690;9.022;2023-02-13T07:46:01;3.80;99.90
2623;DHT22;1321;48.690;9.022;2023-02-13T07:48:30;4.00;99.90
2623;DHT22;1321;48.690;9.022;2023-02-13T07:51:01;4.10;1.00
2623;DHT22;1321;48.690;9.022;2023-02-13T07:53:30;4.20;1.00
2623;DHT22;1321;48.690;9.022;2023-02-13T07:55:58;4.40;1.00
2623;DHT22;1321;48.690;9.022;2023-02-13T07:58:26;4.60;99.90
2623;DHT22;1321;48.690;9.022;2023-02-13T08:00:54;4.80;1.00
2623;DHT22;1321;48.690;9.022;2023-02-13T08:03:23;5.10;1.00
2623;DHT22;1321;48.690;9.022;2023-02-13T08:05:52;5.30;1.00
2623;DHT22;1321;48.690;9.022;2023-02-13T08:08:22;5.40;1.00
2623;DHT22;1321;48.690;9.022;2023-02-13T08:10:50;5.50;1.00
2623;DHT22;1321;48.690;9.022;2023-02-13T08:13:36;5.70;1.00
2623;DHT22;1321;48.690;9.022;2023-02-13T08:16:04;5.80;1.00
2623;DHT22;1321;48.690;9.022;2023-02-13T08:18:32;6.00;1.00
2623;DHT22;1321;48.690;9.022;2023-02-13T08:21:01;6.10;1.00
2623;DHT22;1321;48.690;9.022;2023-02-13T08:23:30;6.30;1.00
2623;DHT22;1321;48.690;9.022;2023-02-13T08:25:59;6.50;1.00
2623;DHT22;1321;48.690;9.022;2023-02-13T08:28:28;6.70;1.00
2623;DHT22;1321;48.690;9.022;2023-02-13T08:30:57;6.90;1.00
2623;DHT22;1321;48.690;9.022;2023-02-13T08:33:25;7.00;1.00
2623;DHT22;1321;48.690;9.022;2023-02-13T08:35:53;7.10;1.00
2623;DHT22;1321;48.690;9.022;2023-02-13T08:38:22;7.10;1.00
2623;DHT22;1321;48.690;9.022;2023-02-13T08:40:51;7.20;1.00
2623;DHT22;1321;48.690;9.022;2023-02-13T08:43:20;7.70;1.00
2623;DHT22;1321;48.690;9.022;2023-02-13T08:45:48;8.10;99.90
2623;DHT22;1321;48.690;9.022;2023-02-13T08:48:17;8.20;99.90
2623;DHT22;1321;48.690;9.022;2023-02-13T08:50:45;8.30;99.90
2623;DHT22;1321;48.690;9.022;2023-02-13T08:53:13;8.40;99.90
2623;DHT22;1321;48.690;9.022;2023-02-13T08:55:41;8.40;99.90
2623;DHT22;1321;48.690;9.022;2023-02-13T08:58:10;9.30;99.90
2623;DHT22;1321;48.690;9.022;2023-02-13T09:00:39;9.70;99.90
2623;DHT22;1321;48.690;9.022;2023-02-13T09:03:07;9.60;99.90
2623;DHT22;1321;48.690;9.022;2023-02-13T09:05:36;9.70;99.90
2623;DHT22;1321;48.690;9.022;2023-02-13T09:08:04;9.40;99.90
2623;DHT22;1321;48.690;9.022;2023-02-13T09:10:34;9.50;99.90
2623;DHT22;1321;48.690;9.022;2023-02-13T09:13:02;9.60;99.90
2623;DHT22;1321;48.690;9.022;2023-02-13T09:15:32;9.80;99.90
2623;DHT22;1321;48.690;9.022;2023-02-13T09:18:00;10.00;99.90
2623;DHT22;1321;48.690;9.022;2023-02-13T09:20:28;10.00;99.90
2623;DHT22;1321;48.690;9.022;2023-02-13T09:22:56;10.30;99.90
2623;DHT22;1321;48.690;9.022;2023-02-13T09:25:25;10.40;99.90
2623;DHT22;1321;48.690;9.022;2023-02-13T09:27:53;10.10;99.90
2623;DHT22;1321;48.690;9.022;2023-02-13T09:30:21;10.20;99.90
2623;DHT22;1321;48.690;9.022;2023-02-13T09:32:52;10.10;99.90
2623;DHT22;1321;48.690;9.022;2023-02-13T09:35:21;10.40;99.90
2623;DHT22;1321;48.690;9.022;2023-02-13T09:37:49;11.50;99.90
2623;DHT22;1321;48.690;9.022;2023-02-13T09:40:22;12.50;99.90
2623;DHT22;1321;48.690;9.022;2023-02-13T09:42:52;13.10;99.90
2623;DHT22;1321;48.690;9.022;2023-02-13T09:45:22;13.50;99.90
2623;DHT22;1321;48.690;9.022;2023-02-13T09:47:51;13.70;99.90
2623;DHT22;1321;48.690;9.022;2023-02-13T09:50:22;13.80;99.90
2623;DHT22;1321;48.690;9.022;2023-02-13T09:52:53;14.10;99.90
2623;DHT22;1321;48.690;9.022;2023-02-13T09:55:26;14.20;99.90
2623;DHT22;1321;48.690;9.022;2023-02-13T09:57:59;13.80;99.90
2623;DHT22;1321;48.690;9.022;2023-02-13T10:00:33;14.00;99.90
2623;DHT22;1321;48.690;9.022;2023-02-13T10:03:20;14.20;99.90
2623;DHT22;1321;48.690;9.022;2023-02-13T10:06:03;14.30;99.90
2623;DHT22;1321;48.690;9.022;2023-02-13T10:11:38;14.70;99.90
2623;DHT22;1321;48.690;9.022;2023-02-13T10:14:15;15.00;99.90
2623;DHT22;1321;48.690;9.022;2023-02-13T10:16:47;15.60;99.90
2623;DHT22;1321;48.690;9.022;2023-02-13T10:19:30;15.90;99.90
2623;DHT22;1321;48.690;9.022;2023-02-13T10:22:04;16.50;99.90
2623;DHT22;1321;48.690;9.022;2023-02-13T10:24:37;17.00;99.90
2623;DHT22;1321;48.690;9.022;2023-02-13T10:27:18;17.30;99.90
2623;DHT22;1321;48.690;9.022;2023-02-13T10:29:50;18.00;99.90
2623;DHT22;1321;48.690;9.022;2023-02-13T10:32:46;18.70;99.90
2623;DHT22;1321;48.690;9.022;2023-02-13T10:35:20;18.60;99.90
2623;DHT22;1321;48.690;9.022;2023-02-13T10:37:54;19.10;99.90
2623;DHT22;1321;48.690;9.022;2023-02-13T10:40:30;20.20;99.90
2623;DHT22;1321;48.690;9.022;2023-02-13T10:43:05;21.10;99.90
2623;DHT22;1321;48.690;9.022;2023-02-13T10:46:06;21.60;99.90
2623;DHT22;1321;48.690;9.022;2023-02-13T10:48:50;22.20;99.90
2623;DHT22;1321;48.690;9.022;2023-02-13T10:51:27;23.00;99.90
2623;DHT22;1321;48.690;9.022;2023-02-13T10:54:22;23.00;99.90
2623;DHT22;1321;48.690;9.022;2023-02-13T10:56:56;23.60;99.90
2623;DHT22;1321;48.690;9.022;2023-02-13T10:59:36;23.30;99.90
2623;DHT22;1321;48.690;9.022;2023-02-13T11:02:20;23.90;99.90
2623;DHT22;1321;48.690;9.022;2023-02-13T11:04:52;24.40;99.90
2623;DHT22;1321;48.690;9.022;2023-02-13T11:07:26;24.20;99.90
2623;DHT22;1321;48.690;9.022;2023-02-13T11:09:59;22.40;99.90
2623;DHT22;1321;48.690;9.022;2023-02-13T11:12:31;21.00;99.90
2623;DHT22;1321;48.690;9.022;2023-02-13T11:15:01;20.60;99.90
2623;DHT22;1321;48.690;9.022;2023-02-13T11:17:31;20.40;99.90
2623;DHT22;1321;48.690;9.022;2023-02-13T11:20:04;21.10;99.90
2623;DHT22;1321;48.690;9.022;2023-02-13T11:22:37;22.30;99.90
2623;DHT22;1321;48.690;9.022;2023-02-13T11:25:17;23.00;99.90
2623;DHT22;1321;48.690;9.022;2023-02-13T11:27:48;23.30;99.90
2623;DHT22;1321;48.690;9.022;2023-02-13T11:30:30;24.00;99.90
2623;DHT22;1321;48.690;9.022;2023-02-13T11:33:00;24.50;99.90
2623;DHT22;1321;48.690;9.022;2023-02-13T11:35:30;25.40;99.90
2623;DHT22;1321;48.690;9.022;2023-02-13T11:38:21;25.00;99.90
2623;DHT22;1321;48.690;9.022;2023-02-13T11:40:51;24.20;99.90
2623;DHT22;1321;48.690;9.022;2023-02-13T11:43:24;21.60;99.90
2623;DHT22;1321;48.690;9.022;2023-02-13T11:46:03;19.50;99.90
2623;DHT22;1321;48.690;9.022;2023-02-13T11:48:32;17.90;99.90
2623;DHT22;1321;48.690;9.022;2023-02-13T11:51:01;16.80;99.90
2623;DHT22;1321;48.690;9.022;2023-02-13T11:53:36;16.00;95.90
2623;DHT22;1321;48.690;9.022;2023-02-13T11:56:09;15.60;95.00
2623;DHT22;1321;48.690;9.022;2023-02-13T11:58:38;15.30;93.70
2623;DHT22;1321;48.690;9.022;2023-02-13T12:01:24;14.90;91.70
2623;DHT22;1321;48.690;9.022;2023-02-13T12:04:02;14.70;91.00
2623;DHT22;1321;48.690;9.022;2023-02-13T12:06:32;14.40;90.00
2623;DHT22;1321;48.690;9.022;2023-02-13T12:09:13;14.30;90.00
2623;DHT22;1321;48.690;9.022;2023-02-13T12:11:45;14.50;92.70
2623;DHT22;1321;48.690;9.022;2023-02-13T12:14:17;14.50;92.50
2623;DHT22;1321;48.690;9.022;2023-02-13T12:16:49;14.30;91.80
2623;DHT22;1321;48.690;9.022;2023-02-13T12:19:21;14.40;92.90
2623;DHT22;1321;48.690;9.022;2023-02-13T12:22:12;14.40;94.40
2623;DHT22;1321;48.690;9.022;2023-02-13T12:27:51;14.60;97.40
2623;DHT22;1321;48.690;9.022;2023-02-13T12:33:27;14.40;94.60
2623;DHT22;1321;48.690;9.022;2023-02-13T12:36:03;14.30;94.70
2623;DHT22;1321;48.690;9.022;2023-02-13T12:38:44;14.00;92.10
2623;DHT22;1321;48.690;9.022;2023-02-13T12:41:20;13.60;90.10
2623;DHT22;1321;48.690;9.022;2023-02-13T12:44:13;13.60;91.80
2623;DHT22;1321;48.690;9.022;2023-02-13T12:46:51;13.90;94.60
2623;DHT22;1321;48.690;9.022;2023-02-13T12:49:47;14.00;96.20
2623;DHT22;1321;48.690;9.022;2023-02-13T12:52:30;14.20;97.90
2623;DHT22;1321;48.690;9.022;2023-02-13T12:55:12;14.20;97.90
2623;DHT22;1321;48.690;9.022;2023-02-13T12:57:55;14.00;94.60
2623;DHT22;1321;48.690;9.022;2023-02-13T13:00:35;13.90;95.50
2623;DHT22;1321;48.690;9.022;2023-02-13T13:06:08;13.90;95.60
2623;DHT22;1321;48.690;9.022;2023-02-13T13:09:00;13.70;93.50
2623;DHT22;1321;48.690;9.022;2023-02-13T13:12:09;13.70;99.90
2623;DHT22;1321;48.690;9.022;2023-02-13T13:14:46;13.80;93.90
2623;DHT22;1321;48.690;9.022;2023-02-13T13:17:30;13.70;93.00
2623;DHT22;1321;48.690;9.022;2023-02-13T13:20:19;13.70;93.80
2623;DHT22;1321;48.690;9.022;2023-02-13T13:22:52;13.70;94.00
2623;DHT22;1321;48.690;9.022;2023-02-13T13:25:27;13.90;97.70
2623;DHT22;1321;48.690;9.022;2023-02-13T13:28:00;13.80;94.70
2623;DHT22;1321;48.690;9.022;2023-02-13T13:30:32;13.80;94.90
2623;DHT22;1321;48.690;9.022;2023-02-13T13:33:04;13.70;94.50
2623;DHT22;1321;48.690;9.022;2023-02-13T13:35:35;13.80;97.60
2623;DHT22;1321;48.690;9.022;2023-02-13T13:38:10;13.90;96.90
2623;DHT22;1321;48.690;9.022;2023-02-13T13:40:41;13.80;96.90
2623;DHT22;1321;48.690;9.022;2023-02-13T13:43:19;13.80;97.60
2623;DHT22;1321;48.690;9.022;2023-02-13T13:46:01;13.70;96.80
2623;DHT22;1321;48.690;9.022;2023-02-13T13:48:49;13.70;97.40
2623;DHT22;1321;48.690;9.022;2023-02-13T13:51:19;13.60;95.40
2623;DHT22;1321;48.690;9.022;2023-02-13T13:54:22;13.50;96.10
2623;DHT22;1321;48.690;9.022;2023-02-13T13:57:08;13.60;98.10
2623;DHT22;1321;48.690;9.022;2023-02-13T14:03:20;13.40;96.10
2623;DHT22;1321;48.690;9.022;2023-02-13T14:06:04;13.50;98.00
2623;DHT22;1321;48.690;9.022;2023-02-13T14:08:54;13.60;97.70
2623;DHT22;1321;48.690;9.022;2023-02-13T14:11:32;13.30;96.90
2623;DHT22;1321;48.690;9.022;2023-02-13T14:14:01;13.30;96.30
2623;DHT22;1321;48.690;9.022;2023-02-13T14:16:49;13.20;95.80
2623;DHT22;1321;48.690;9.022;2023-02-13T14:19:25;13.20;97.30
2623;DHT22;1321;48.690;9.022;2023-02-13T14:21:54;13.30;97.50
2623;DHT22;1321;48.690;9.022;2023-02-13T14:24:48;13.40;97.90
2623;DHT22;1321;48.690;9.022;2023-02-13T14:27:21;13.30;97.50
2623;DHT22;1321;48.690;9.022;2023-02-13T14:29:49;13.40;98.40
2623;DHT22;1321;48.690;9.022;2023-02-13T14:32:20;13.40;97.60
2623;DHT22;1321;48.690;9.022;2023-02-13T14:34:57;13.30;97.50
2623;DHT22;1321;48.690;9.022;2023-02-13T14:37:36;13.20;97.40
2623;DHT22;1321;48.690;9.022;2023-02-13T14:42:55;13.10;97.40
2623;DHT22;1321;48.690;9.022;2023-02-13T14:45:28;13.00;97.40
2623;DHT22;1321;48.690;9.022;2023-02-13T14:48:06;13.10;97.40
2623;DHT22;1321;48.690;9.022;2023-02-13T14:50:43;13.10;97.90
2623;DHT22;1321;48.690;9.022;2023-02-13T14:53:20;13.00;99.90
2623;DHT22;1321;48.690;9.022;2023-02-13T14:55:55;12.80;99.90
2623;DHT22;1321;48.690;9.022;2023-02-13T14:58:27;12.70;97.10
2623;DHT22;1321;48.690;9.022;2023-02-13T15:00:59;12.50;97.10
2623;DHT22;1321;48.690;9.022;2023-02-13T15:03:35;12.60;97.20
2623;DHT22;1321;48.690;9.022;2023-02-13T15:06:11;12.60;99.10
2623;DHT22;1321;48.690;9.022;2023-02-13T15:08:46;12.70;99.90
2623;DHT22;1321;48.690;9.022;2023-02-13T15:11:34;12.60;99.90
2623;DHT22;1321;48.690;9.022;2023-02-13T15:14:20;12.70;99.90
2623;DHT22;1321;48.690;9.022;2023-02-13T15:16:54;12.70;99.90
2623;DHT22;1321;48.690;9.022;2023-02-13T15:19:24;12.60;99.90
2623;DHT22;1321;48.690;9.022;2023-02-13T15:21:56;12.60;99.90
2623;DHT22;1321;48.690;9.022;2023-02-13T15:24:25;12.60;99.90
2623;DHT22;1321;48.690;9.022;2023-02-13T15:27:02;12.60;99.90
2623;DHT22;1321;48.690;9.022;2023-02-13T15:29:31;12.50;99.90
2623;DHT22;1321;48.690;9.022;2023-02-13T15:32:19;12.50;99.90
2623;DHT22;1321;48.690;9.022;2023-02-13T15:34:48;12.40;99.90
2623;DHT22;1321;48.690;9.022;2023-02-13T15:37:21;12.30;99.90
2623;DHT22;1321;48.690;9.022;2023-02-13T15:39:49;12.40;99.90
2623;DHT22;1321;48.690;9.022;2023-02-13T15:42:18;12.40;99.90
2623;DHT22;1321;48.690;9.022;2023-02-13T15:44:47;12.30;99.90
2623;DHT22;1321;48.690;9.022;2023-02-13T15:47:18;12.30;99.90
2623;DHT22;1321;48.690;9.022;2023-02-13T15:49:50;12.30;99.90
2623;DHT22;1321;48.690;9.022;2023-02-13T15:52:25;12.20;99.90
2623;DHT22;1321;48.690;9.022;2023-02-13T15:54:55;12.00;99.90
2623;DHT22;1321;48.690;9.022;2023-02-13T15:57:25;11.90;99.90
2623;DHT22;1321;48.690;9.022;2023-02-13T15:59:57;11.90;99.90
2623;DHT22;1321;48.690;9.022;2023-02-13T16:02:30;11.90;99.90
2623;DHT22;1321;48.690;9.022;2023-02-13T16:05:01;11.90;99.90
2623;DHT22;1321;48.690;9.022;2023-02-13T16:07:46;11.80;99.90
2623;DHT22;1321;48.690;9.022;2023-02-13T16:10:16;11.80;99.90
2623;DHT22;1321;48.690;9.022;2023-02-13T16:12:45;11.80;99.90
2623;DHT22;1321;48.690;9.022;2023-02-13T16:15:17;11.70;99.90
2623;DHT22;1321;48.690;9.022;2023-02-13T16:17:46;11.60;99.90
2623;DHT22;1321;48.690;9.022;2023-02-13T16:20:19;11.60;99.90
2623;DHT22;1321;48.690;9.022;2023-02-13T16:22:51;11.50;99.90
2623;DHT22;1321;48.690;9.022;2023-02-13T16:25:24;11.50;99.90
2623;DHT22;1321;48.690;9.022;2023-02-13T16:27:56;11.40;99.90
2623;DHT22;1321;48.690;9.022;2023-02-13T16:30:29;11.20;99.90
2623;DHT22;1321;48.690;9.022;2023-02-13T16:33:21;11.20;99.90
2623;DHT22;1321;48.690;9.022;2023-02-13T16:35:50;11.20;99.90
2623;DHT22;1321;48.690;9.022;2023-02-13T16:38:32;11.10;99.90
2623;DHT22;1321;48.690;9.022;2023-02-13T16:41:01;11.00;99.90
2623;DHT22;1321;48.690;9.022;2023-02-13T16:43:42;10.80;99.90
2623;DHT22;1321;48.690;9.022;2023-02-13T16:46:15;10.70;99.90
2623;DHT22;1321;48.690;9.022;2023-02-13T16:48:46;10.60;99.90
2623;DHT22;1321;48.690;9.022;2023-02-13T16:51:29;10.60;99.90
2623;DHT22;1321;48.690;9.022;2023-02-13T16:54:02;10.60;99.90
2623;DHT22;1321;48.690;9.022;2023-02-13T16:56:39;10.60;99.90
2623;DHT22;1321;48.690;9.022;2023-02-13T16:59:33;10.40;99.90
2623;DHT22;1321;48.690;9.022;2023-02-13T17:02:17;10.40;99.90
2623;DHT22;1321;48.690;9.022;2023-02-13T17:04:48;10.30;99.90
2623;DHT22;1321;48.690;9.022;2023-02-13T17:07:25;10.20;99.90
2623;DHT22;1321;48.690;9.022;2023-02-13T17:09:57;10.10;99.90
2623;DHT22;1321;48.690;9.022;2023-02-13T17:12:26;10.10;99.90
2623;DHT22;1321;48.690;9.022;2023-02-13T17:14:56;10.00;99.90
2623;DHT22;1321;48.690;9.022;2023-02-13T17:17:27;10.00;99.90
2623;DHT22;1321;48.690;9.022;2023-02-13T17:19:55;10.00;99.90